sensor_id;sensor_type;location;lat;lon;timestamp;pressure;altitude;pressure_sealevel;temperature;humidity
73679;BME280;61978;52.742;16.962;2022-09-13T00:02:18;100744.91;;;11.70;100.00
73679;BME280;61978;52.742;16.962;2022-09-13T00:04:45;100742.86;;;11.51;100.00
73679;BME280;61978;52.742;16.962;2022-09-13T00:07:12;100744.02;;;11.42;100.00
73679;BME280;61978;52.742;16.962;2022-09-13T00:09:39;100737.63;;;11.43;100.00
73679;BME280;61978;52.742;16.962;2022-09-13T00:12:06;100739.08;;;11.35;100.00
73679;BME280;61978;52.742;16.962;2022-09-13T00:14:33;100730.50;;;11.35;100.00
73679;BME280;61978;52.742;16.962;2022-09-13T00:16:59;100725.96;;;11.36;100.00
73679;BME280;61978;52.742;16.962;2022-09-13T00:19:27;100729.61;;;11.39;100.00
73679;BME280;61978;52.742;16.962;2022-09-13T00:21:53;100729.61;;;11.39;100.00
73679;BME280;61978;52.742;16.962;2022-09-13T00:24:21;100728.58;;;11.29;100.00
73679;BME280;61978;52.742;16.962;2022-09-13T00:26:48;100728.84;;;11.24;100.00
73679;BME280;61978;52.742;16.962;2022-09-13T00:29:15;100723.90;;;11.16;100.00
73679;BME280;61978;52.742;16.962;2022-09-13T00:31:42;100719.31;;;11.21;100.00
73679;BME280;61978;52.742;16.962;2022-09-13T00:34:09;100717.25;;;11.23;100.00
73679;BME280;61978;52.742;16.962;2022-09-13T00:36:37;100714.56;;;11.23;100.00
73679;BME280;61978;52.742;16.962;2022-09-13T00:39:03;100714.05;;;11.24;100.00
73679;BME280;61978;52.742;16.962;2022-09-13T00:41:30;100712.13;;;11.18;100.00
73679;BME280;61978;52.742;16.962;2022-09-13T00:44:00;100712.77;;;11.20;100.00
73679;BME280;61978;52.742;16.962;2022-09-13T00:49:15;100706.62;;;11.26;100.00
73679;BME280;61978;52.742;16.962;2022-09-13T00:51:44;100704.02;;;11.22;100.00
73679;BME280;61978;52.742;16.962;2022-09-13T00:54:13;100705.92;;;11.17;100.00
73679;BME280;61978;52.742;16.962;2022-09-13T00:56:44;100709.71;;;11.01;100.00
73679;BME280;61978;52.742;16.962;2022-09-13T00:59:18;100711.36;;;11.02;100.00
73679;BME280;61978;52.742;16.962;2022-09-13T01:01:48;100699.84;;;11.08;100.00
73679;BME280;61978;52.742;16.962;2022-09-13T01:04:17;100698.75;;;11.13;100.00
73679;BME280;61978;52.742;16.962;2022-09-13T01:06:46;100700.89;;;11.07;100.00
73679;BME280;61978;52.742;16.962;2022-09-13T01:09:15;100701.31;;;11.00;100.00
73679;BME280;61978;52.742;16.962;2022-09-13T01:11:47;100701.65;;;11.01;100.00
73679;BME280;61978;52.742;16.962;2022-09-13T01:14:17;100693.12;;;10.98;100.00
73679;BME280;61978;52.742;16.962;2022-09-13T01:16:46;100696.52;;;11.06;100.00
73679;BME280;61978;52.742;16.962;2022-09-13T01:19:13;100690.64;;;11.07;100.00
73679;BME280;61978;52.742;16.962;2022-09-13T01:24:29;100697.74;;;11.04;100.00
73679;BME280;61978;52.742;16.962;2022-09-13T01:27:11;100690.62;;;10.96;100.00
73679;BME280;61978;52.742;16.962;2022-09-13T01:35:13;100680.68;;;10.65;100.00
73679;BME280;61978;52.742;16.962;2022-09-13T01:46:31;100673.00;;;10.73;100.00
73679;BME280;61978;52.742;16.962;2022-09-13T01:49:08;100669.48;;;10.72;100.00
73679;BME280;61978;52.742;16.962;2022-09-13T01:51:44;100669.18;;;10.71;100.00
73679;BME280;61978;52.742;16.962;2022-09-13T01:54:33;100663.52;;;10.66;100.00
73679;BME280;61978;52.742;16.962;2022-09-13T01:57:16;100658.23;;;10.62;100.00
73679;BME280;61978;52.742;16.962;2022-09-13T01:59:58;100648.62;;;10.53;100.00
73679;BME280;61978;52.742;16.962;2022-09-13T02:05:03;100642.08;;;10.41;100.00
73679;BME280;61978;52.742;16.962;2022-09-13T02:07:39;100639.77;;;10.38;100.00
73679;BME280;61978;52.742;16.962;2022-09-13T02:10:11;100638.84;;;10.31;100.00
73679;BME280;61978;52.742;16.962;2022-09-13T02:12:41;100644.35;;;10.04;100.00
73679;BME280;61978;52.742;16.962;2022-09-13T02:15:13;100638.03;;;10.16;100.00
73679;BME280;61978;52.742;16.962;2022-09-13T02:17:47;100630.58;;;10.22;100.00
73679;BME280;61978;52.742;16.962;2022-09-13T02:20:17;100618.08;;;10.29;100.00
73679;BME280;61978;52.742;16.962;2022-09-13T02:22:43;100619.75;;;10.30;100.00
73679;BME280;61978;52.742;16.962;2022-09-13T02:25:14;100612.38;;;10.28;100.00
73679;BME280;61978;52.742;16.962;2022-09-13T02:27:45;100609.31;;;10.31;100.00
73679;BME280;61978;52.742;16.962;2022-09-13T02:30:13;100607.09;;;10.34;100.00
73679;BME280;61978;52.742;16.962;2022-09-13T02:32:55;100612.54;;;10.41;100.00
73679;BME280;61978;52.742;16.962;2022-09-13T02:35:30;100617.11;;;10.51;100.00
73679;BME280;61978;52.742;16.962;2022-09-13T02:37:59;100610.31;;;10.44;100.00
73679;BME280;61978;52.742;16.962;2022-09-13T02:40:27;100601.38;;;10.48;100.00
73679;BME280;61978;52.742;16.962;2022-09-13T02:42:58;100597.02;;;10.47;100.00
73679;BME280;61978;52.742;16.962;2022-09-13T02:45:28;100599.11;;;10.51;100.00
73679;BME280;61978;52.742;16.962;2022-09-13T02:48:11;100599.06;;;10.45;100.00
73679;BME280;61978;52.742;16.962;2022-09-13T02:51:01;100589.59;;;10.49;100.00
73679;BME280;61978;52.742;16.962;2022-09-13T02:53:33;100587.79;;;10.45;100.00
73679;BME280;61978;52.742;16.962;2022-09-13T02:58:50;100589.59;;;10.38;100.00
73679;BME280;61978;52.742;16.962;2022-09-13T03:01:16;100587.91;;;10.37;100.00
73679;BME280;61978;52.742;16.962;2022-09-13T03:03:43;100584.02;;;10.40;100.00
73679;BME280;61978;52.742;16.962;2022-09-13T03:06:10;100578.39;;;10.35;100.00
73679;BME280;61978;52.742;16.962;2022-09-13T03:08:38;100581.00;;;10.28;100.00
73679;BME280;61978;52.742;16.962;2022-09-13T03:11:24;100572.23;;;10.20;100.00
73679;BME280;61978;52.742;16.962;2022-09-13T03:20:01;100556.28;;;10.43;100.00
73679;BME280;61978;52.742;16.962;2022-09-13T03:30:29;100542.67;;;10.45;100.00
73679;BME280;61978;52.742;16.962;2022-09-13T03:33:02;100541.78;;;10.59;100.00
73679;BME280;61978;52.742;16.962;2022-09-13T03:35:53;100536.79;;;10.56;100.00
73679;BME280;61978;52.742;16.962;2022-09-13T03:38:38;100540.19;;;10.54;100.00
73679;BME280;61978;52.742;16.962;2022-09-13T03:41:15;100536.92;;;10.48;100.00
73679;BME280;61978;52.742;16.962;2022-09-13T03:43:52;100535.69;;;10.61;100.00
73679;BME280;61978;52.742;16.962;2022-09-13T03:46:34;100520.59;;;10.71;100.00
73679;BME280;61978;52.742;16.962;2022-09-13T03:49:03;100524.69;;;10.77;100.00
73679;BME280;61978;52.742;16.962;2022-09-13T03:51:32;100528.24;;;10.84;100.00
73679;BME280;61978;52.742;16.962;2022-09-13T03:54:04;100525.17;;;10.87;100.00
73679;BME280;61978;52.742;16.962;2022-09-13T03:56:32;100520.06;;;10.92;100.00
73679;BME280;61978;52.742;16.962;2022-09-13T03:58:58;100519.67;;;10.95;100.00
73679;BME280;61978;52.742;16.962;2022-09-13T04:01:25;100511.91;;;10.96;100.00
73679;BME280;61978;52.742;16.962;2022-09-13T04:03:52;100515.82;;;10.94;100.00
73679;BME280;61978;52.742;16.962;2022-09-13T04:06:19;100520.45;;;10.89;100.00
73679;BME280;61978;52.742;16.962;2022-09-13T04:08:45;100525.30;;;11.18;100.00
73679;BME280;61978;52.742;16.962;2022-09-13T04:11:13;100520.03;;;11.20;100.00
73679;BME280;61978;52.742;16.962;2022-09-13T04:13:39;100520.69;;;11.22;100.00
73679;BME280;61978;52.742;16.962;2022-09-13T04:16:07;100526.74;;;11.31;100.00
73679;BME280;61978;52.742;16.962;2022-09-13T04:18:34;100522.22;;;11.38;100.00
73679;BME280;61978;52.742;16.962;2022-09-13T04:21:02;100525.23;;;11.39;100.00
73679;BME280;61978;52.742;16.962;2022-09-13T04:23:29;100520.58;;;11.37;100.00
73679;BME280;61978;52.742;16.962;2022-09-13T04:26:02;100521.59;;;11.36;100.00
73679;BME280;61978;52.742;16.962;2022-09-13T04:28:31;100520.97;;;11.34;100.00
73679;BME280;61978;52.742;16.962;2022-09-13T04:30:57;100516.22;;;11.36;100.00
73679;BME280;61978;52.742;16.962;2022-09-13T04:33:23;100514.47;;;11.39;100.00
73679;BME280;61978;52.742;16.962;2022-09-13T04:35:56;100508.64;;;11.52;100.00
73679;BME280;61978;52.742;16.962;2022-09-13T04:38:20;100498.57;;;11.61;100.00
73679;BME280;61978;52.742;16.962;2022-09-13T04:40:55;100505.76;;;11.20;100.00
73679;BME280;61978;52.742;16.962;2022-09-13T04:43:23;100508.61;;;11.11;100.00
73679;BME280;61978;52.742;16.962;2022-09-13T04:45:50;100504.52;;;11.15;100.00
73679;BME280;61978;52.742;16.962;2022-09-13T04:48:17;100488.83;;;11.19;100.00
73679;BME280;61978;52.742;16.962;2022-09-13T04:50:44;100494.55;;;11.09;100.00
73679;BME280;61978;52.742;16.962;2022-09-13T04:53:11;100485.59;;;11.02;100.00
73679;BME280;61978;52.742;16.962;2022-09-13T04:55:38;100490.91;;;11.06;100.00
73679;BME280;61978;52.742;16.962;2022-09-13T04:58:06;100487.33;;;11.16;100.00
73679;BME280;61978;52.742;16.962;2022-09-13T05:00:33;100479.71;;;11.20;100.00
73679;BME280;61978;52.742;16.962;2022-09-13T05:03:00;100479.31;;;11.23;100.00
73679;BME280;61978;52.742;16.962;2022-09-13T05:05:27;100472.57;;;11.34;100.00
73679;BME280;61978;52.742;16.962;2022-09-13T05:07:54;100473.41;;;11.41;100.00
73679;BME280;61978;52.742;16.962;2022-09-13T05:10:21;100465.31;;;11.51;100.00
73679;BME280;61978;52.742;16.962;2022-09-13T05:12:48;100465.02;;;11.57;100.00
73679;BME280;61978;52.742;16.962;2022-09-13T05:15:15;100466.19;;;11.65;100.00
73679;BME280;61978;52.742;16.962;2022-09-13T05:17:42;100457.34;;;11.71;100.00
73679;BME280;61978;52.742;16.962;2022-09-13T05:20:10;100453.12;;;11.79;100.00
73679;BME280;61978;52.742;16.962;2022-09-13T05:22:37;100448.19;;;11.89;100.00
73679;BME280;61978;52.742;16.962;2022-09-13T05:25:05;100442.61;;;11.97;100.00
73679;BME280;61978;52.742;16.962;2022-09-13T05:27:32;100439.34;;;12.08;100.00
73679;BME280;61978;52.742;16.962;2022-09-13T05:29:58;100436.04;;;12.19;100.00
73679;BME280;61978;52.742;16.962;2022-09-13T05:32:31;100437.08;;;12.25;100.00
73679;BME280;61978;52.742;16.962;2022-09-13T05:34:58;100430.14;;;12.40;100.00
73679;BME280;61978;52.742;16.962;2022-09-13T05:37:25;100427.75;;;12.47;100.00
73679;BME280;61978;52.742;16.962;2022-09-13T05:39:52;100422.78;;;12.51;100.00
73679;BME280;61978;52.742;16.962;2022-09-13T05:42:19;100415.12;;;12.61;100.00
73679;BME280;61978;52.742;16.962;2022-09-13T05:44:45;100399.16;;;12.66;100.00
73679;BME280;61978;52.742;16.962;2022-09-13T05:47:13;100400.20;;;13.07;100.00
73679;BME280;61978;52.742;16.962;2022-09-13T05:49:40;100398.61;;;13.57;100.00
73679;BME280;61978;52.742;16.962;2022-09-13T05:52:07;100386.48;;;14.19;100.00
73679;BME280;61978;52.742;16.962;2022-09-13T05:54:33;100386.13;;;14.74;100.00
73679;BME280;61978;52.742;16.962;2022-09-13T05:57:02;100375.54;;;15.36;100.00
73679;BME280;61978;52.742;16.962;2022-09-13T05:59:28;100371.23;;;15.86;100.00
73679;BME280;61978;52.742;16.962;2022-09-13T06:01:58;100364.76;;;16.40;100.00
73679;BME280;61978;52.742;16.962;2022-09-13T06:04:25;100352.73;;;16.56;100.00
73679;BME280;61978;52.742;16.962;2022-09-13T06:06:51;100340.45;;;16.89;100.00
73679;BME280;61978;52.742;16.962;2022-09-13T06:09:18;100335.27;;;17.13;100.00
73679;BME280;61978;52.742;16.962;2022-09-13T06:11:45;100348.38;;;16.93;100.00
73679;BME280;61978;52.742;16.962;2022-09-13T06:14:12;100324.73;;;17.28;100.00
73679;BME280;61978;52.742;16.962;2022-09-13T06:16:39;100309.22;;;17.68;100.00
73679;BME280;61978;52.742;16.962;2022-09-13T06:19:07;100309.34;;;17.76;100.00
73679;BME280;61978;52.742;16.962;2022-09-13T06:21:37;100279.00;;;18.29;100.00
73679;BME280;61978;52.742;16.962;2022-09-13T06:24:05;100278.95;;;18.46;100.00
73679;BME280;61978;52.742;16.962;2022-09-13T06:26:33;100278.27;;;18.36;100.00
73679;BME280;61978;52.742;16.962;2022-09-13T06:29:00;100266.70;;;18.62;100.00
73679;BME280;61978;52.742;16.962;2022-09-13T06:31:27;100259.84;;;18.57;100.00
73679;BME280;61978;52.742;16.962;2022-09-13T06:33:56;100262.45;;;18.14;100.00
73679;BME280;61978;52.742;16.962;2022-09-13T06:36:24;100257.02;;;18.14;100.00
73679;BME280;61978;52.742;16.962;2022-09-13T06:38:51;100248.86;;;18.14;100.00
73679;BME280;61978;52.742;16.962;2022-09-13T06:41:19;100303.61;;;17.89;100.00
73679;BME280;61978;52.742;16.962;2022-09-13T06:43:59;100288.33;;;17.86;100.00
73679;BME280;61978;52.742;16.962;2022-09-13T06:46:18;100274.63;;;17.78;100.00
73679;BME280;61978;52.742;16.962;2022-09-13T06:48:48;100262.67;;;17.79;100.00
73679;BME280;61978;52.742;16.962;2022-09-13T06:51:17;100264.14;;;17.70;100.00
73679;BME280;61978;52.742;16.962;2022-09-13T06:53:45;100258.59;;;17.62;100.00
73679;BME280;61978;52.742;16.962;2022-09-13T06:56:15;100251.02;;;17.79;100.00
73679;BME280;61978;52.742;16.962;2022-09-13T06:58:44;100260.03;;;17.82;100.00
73679;BME280;61978;52.742;16.962;2022-09-13T07:03:44;100249.66;;;17.79;100.00
73679;BME280;61978;52.742;16.962;2022-09-13T07:06:13;100259.73;;;17.81;100.00
73679;BME280;61978;52.742;16.962;2022-09-13T07:08:42;100249.22;;;18.03;100.00
73679;BME280;61978;52.742;16.962;2022-09-13T07:11:12;100251.44;;;18.06;100.00
73679;BME280;61978;52.742;16.962;2022-09-13T07:13:40;100258.89;;;17.97;100.00
73679;BME280;61978;52.742;16.962;2022-09-13T07:16:09;100278.37;;;17.74;100.00
73679;BME280;61978;52.742;16.962;2022-09-13T07:18:36;100263.80;;;17.81;100.00
73679;BME280;61978;52.742;16.962;2022-09-13T07:21:06;100257.39;;;17.87;100.00
73679;BME280;61978;52.742;16.962;2022-09-13T07:23:35;100252.75;;;17.70;100.00
73679;BME280;61978;52.742;16.962;2022-09-13T07:26:03;100252.38;;;17.79;100.00
73679;BME280;61978;52.742;16.962;2022-09-13T07:28:34;100242.20;;;18.05;100.00
73679;BME280;61978;52.742;16.962;2022-09-13T07:31:09;100241.10;;;18.06;100.00
73679;BME280;61978;52.742;16.962;2022-09-13T07:33:39;100232.46;;;18.47;100.00
73679;BME280;61978;52.742;16.962;2022-09-13T07:36:06;100245.84;;;18.13;100.00
73679;BME280;61978;52.742;16.962;2022-09-13T07:38:38;100236.19;;;18.41;100.00
73679;BME280;61978;52.742;16.962;2022-09-13T07:41:06;100232.31;;;18.18;100.00
73679;BME280;61978;52.742;16.962;2022-09-13T07:43:34;100239.74;;;18.06;100.00
73679;BME280;61978;52.742;16.962;2022-09-13T07:46:06;100237.69;;;18.13;100.00
73679;BME280;61978;52.742;16.962;2022-09-13T07:48:36;100226.11;;;18.39;100.00
73679;BME280;61978;52.742;16.962;2022-09-13T07:53:33;100231.40;;;18.48;100.00
73679;BME280;61978;52.742;16.962;2022-09-13T07:56:10;100221.64;;;18.91;100.00
73679;BME280;61978;52.742;16.962;2022-09-13T07:58:35;100228.34;;;18.83;100.00
73679;BME280;61978;52.742;16.962;2022-09-13T08:03:33;100218.23;;;19.27;100.00
73679;BME280;61978;52.742;16.962;2022-09-13T08:18:59;100205.80;;;19.09;100.00
73679;BME280;61978;52.742;16.962;2022-09-13T08:21:36;100200.89;;;18.84;100.00
73679;BME280;61978;52.742;16.962;2022-09-13T08:24:05;100195.30;;;18.96;100.00
73679;BME280;61978;52.742;16.962;2022-09-13T08:26:33;100185.58;;;18.78;100.00
73679;BME280;61978;52.742;16.962;2022-09-13T08:29:03;100171.76;;;18.82;100.00
73679;BME280;61978;52.742;16.962;2022-09-13T08:31:30;100150.57;;;19.14;100.00
73679;BME280;61978;52.742;16.962;2022-09-13T08:33:57;100151.94;;;19.14;100.00
73679;BME280;61978;52.742;16.962;2022-09-13T08:36:25;100161.81;;;19.22;100.00
73679;BME280;61978;52.742;16.962;2022-09-13T08:38:55;100145.83;;;19.31;100.00
73679;BME280;61978;52.742;16.962;2022-09-13T08:41:52;100142.44;;;19.19;100.00
73679;BME280;61978;52.742;16.962;2022-09-13T08:44:44;100158.16;;;19.09;100.00
73679;BME280;61978;52.742;16.962;2022-09-13T08:50:06;100157.00;;;19.03;100.00
73679;BME280;61978;52.742;16.962;2022-09-13T08:52:34;100154.20;;;18.98;100.00
73679;BME280;61978;52.742;16.962;2022-09-13T08:57:51;100136.69;;;19.15;100.00
73679;BME280;61978;52.742;16.962;2022-09-13T09:00:30;100123.31;;;19.09;100.00
73679;BME280;61978;52.742;16.962;2022-09-13T09:03:01;100117.95;;;18.92;100.00
73679;BME280;61978;52.742;16.962;2022-09-13T09:05:31;100097.53;;;18.90;100.00
73679;BME280;61978;52.742;16.962;2022-09-13T09:08:09;100093.92;;;18.81;100.00
73679;BME280;61978;52.742;16.962;2022-09-13T09:10:47;100066.92;;;19.07;100.00
73679;BME280;61978;52.742;16.962;2022-09-13T09:15:53;100089.20;;;19.01;100.00
73679;BME280;61978;52.742;16.962;2022-09-13T09:18:41;100098.48;;;19.03;100.00
73679;BME280;61978;52.742;16.962;2022-09-13T09:20:55;100090.27;;;19.27;100.00
73679;BME280;61978;52.742;16.962;2022-09-13T09:23:34;100099.29;;;19.32;100.00
73679;BME280;61978;52.742;16.962;2022-09-13T09:28:38;100125.17;;;19.35;100.00
73679;BME280;61978;52.742;16.962;2022-09-13T09:31:23;100120.41;;;19.47;100.00
73679;BME280;61978;52.742;16.962;2022-09-13T09:33:55;100114.28;;;19.35;100.00
73679;BME280;61978;52.742;16.962;2022-09-13T09:39:04;100101.58;;;19.46;100.00
73679;BME280;61978;52.742;16.962;2022-09-13T09:41:32;100100.31;;;19.56;100.00
73679;BME280;61978;52.742;16.962;2022-09-13T09:44:35;100085.55;;;19.49;100.00
73679;BME280;61978;52.742;16.962;2022-09-13T09:46:38;100092.91;;;19.51;100.00
73679;BME280;61978;52.742;16.962;2022-09-13T09:52:05;100084.50;;;19.55;100.00
73679;BME280;61978;52.742;16.962;2022-09-13T09:54:34;100085.02;;;19.52;100.00
73679;BME280;61978;52.742;16.962;2022-09-13T09:57:01;100073.08;;;19.58;100.00
73679;BME280;61978;52.742;16.962;2022-09-13T09:59:31;100052.72;;;19.68;100.00
73679;BME280;61978;52.742;16.962;2022-09-13T10:02:00;100050.33;;;19.79;100.00
73679;BME280;61978;52.742;16.962;2022-09-13T10:04:30;100040.33;;;19.95;100.00
73679;BME280;61978;52.742;16.962;2022-09-13T10:07:10;100031.11;;;20.14;100.00
73679;BME280;61978;52.742;16.962;2022-09-13T10:09:36;100042.53;;;20.01;100.00
73679;BME280;61978;52.742;16.962;2022-09-13T10:12:04;100024.95;;;20.31;100.00
73679;BME280;61978;52.742;16.962;2022-09-13T10:14:43;100001.55;;;20.58;100.00
73679;BME280;61978;52.742;16.962;2022-09-13T10:17:19;100023.64;;;20.48;100.00
73679;BME280;61978;52.742;16.962;2022-09-13T10:19:57;100012.98;;;20.52;100.00
73679;BME280;61978;52.742;16.962;2022-09-13T10:22:25;100020.91;;;20.61;100.00
73679;BME280;61978;52.742;16.962;2022-09-13T10:24:52;100031.03;;;20.63;100.00
73679;BME280;61978;52.742;16.962;2022-09-13T10:27:34;100019.31;;;20.75;100.00
73679;BME280;61978;52.742;16.962;2022-09-13T10:29:59;100014.41;;;20.87;100.00
73679;BME280;61978;52.742;16.962;2022-09-13T10:32:29;99995.58;;;21.29;100.00
73679;BME280;61978;52.742;16.962;2022-09-13T10:35:01;99986.16;;;21.75;100.00
73679;BME280;61978;52.742;16.962;2022-09-13T10:37:27;100026.09;;;21.56;100.00
73679;BME280;61978;52.742;16.962;2022-09-13T10:40:06;100051.00;;;21.29;100.00
73679;BME280;61978;52.742;16.962;2022-09-13T10:42:34;100049.91;;;21.20;100.00
73679;BME280;61978;52.742;16.962;2022-09-13T10:45:04;100039.27;;;21.19;100.00
73679;BME280;61978;52.742;16.962;2022-09-13T10:47:43;100042.81;;;21.27;100.00
73679;BME280;61978;52.742;16.962;2022-09-13T10:50:17;100065.72;;;21.00;100.00
73679;BME280;61978;52.742;16.962;2022-09-13T10:52:45;100079.07;;;20.69;100.00
73679;BME280;61978;52.742;16.962;2022-09-13T10:55:21;100038.69;;;20.94;100.00
73679;BME280;61978;52.742;16.962;2022-09-13T10:57:54;100050.95;;;20.71;100.00
73679;BME280;61978;52.742;16.962;2022-09-13T11:00:45;100074.65;;;20.53;100.00
73679;BME280;61978;52.742;16.962;2022-09-13T11:08:34;100010.84;;;20.94;100.00
73679;BME280;61978;52.742;16.962;2022-09-13T11:11:09;99997.47;;;21.23;100.00
73679;BME280;61978;52.742;16.962;2022-09-13T11:13:56;99996.13;;;21.26;100.00
73679;BME280;61978;52.742;16.962;2022-09-13T11:22:17;99992.81;;;21.36;100.00
73679;BME280;61978;52.742;16.962;2022-09-13T11:27:34;100035.43;;;21.04;100.00
73679;BME280;61978;52.742;16.962;2022-09-13T11:30:17;100017.69;;;21.15;100.00
73679;BME280;61978;52.742;16.962;2022-09-13T11:38:34;100047.11;;;20.55;100.00
73679;BME280;61978;52.742;16.962;2022-09-13T11:44:00;100002.66;;;20.74;100.00
73679;BME280;61978;52.742;16.962;2022-09-13T11:55:37;99967.72;;;20.89;100.00
73679;BME280;61978;52.742;16.962;2022-09-13T11:58:09;99957.63;;;20.89;100.00
73679;BME280;61978;52.742;16.962;2022-09-13T12:00:48;99964.45;;;20.89;100.00
73679;BME280;61978;52.742;16.962;2022-09-13T12:03:37;99922.94;;;21.13;100.00
73679;BME280;61978;52.742;16.962;2022-09-13T12:08:40;99939.87;;;21.10;100.00
73679;BME280;61978;52.742;16.962;2022-09-13T12:11:18;99921.84;;;21.19;100.00
73679;BME280;61978;52.742;16.962;2022-09-13T12:13:50;99930.88;;;21.14;100.00
73679;BME280;61978;52.742;16.962;2022-09-13T12:16:35;99946.41;;;21.03;100.00
73679;BME280;61978;52.742;16.962;2022-09-13T12:19:05;99930.57;;;21.26;100.00
73679;BME280;61978;52.742;16.962;2022-09-13T12:21:38;99925.61;;;21.35;100.00
73679;BME280;61978;52.742;16.962;2022-09-13T12:24:15;99943.13;;;21.32;100.00
73679;BME280;61978;52.742;16.962;2022-09-13T12:26:58;99971.57;;;21.08;100.00
73679;BME280;61978;52.742;16.962;2022-09-13T12:32:14;99964.71;;;21.18;100.00
73679;BME280;61978;52.742;16.962;2022-09-13T12:35:01;99968.83;;;21.11;100.00
73679;BME280;61978;52.742;16.962;2022-09-13T12:43:06;99956.52;;;21.26;100.00
73679;BME280;61978;52.742;16.962;2022-09-13T12:48:54;99969.87;;;20.99;100.00
73679;BME280;61978;52.742;16.962;2022-09-13T12:51:35;99942.59;;;21.04;100.00
73679;BME280;61978;52.742;16.962;2022-09-13T12:57:06;99955.16;;;20.98;100.00
73679;BME280;61978;52.742;16.962;2022-09-13T13:02:02;99945.05;;;20.88;100.00
73679;BME280;61978;52.742;16.962;2022-09-13T13:04:32;99928.11;;;20.96;100.00
73679;BME280;61978;52.742;16.962;2022-09-13T13:07:02;99912.00;;;21.02;100.00
73679;BME280;61978;52.742;16.962;2022-09-13T13:09:43;99931.96;;;20.93;100.00
73679;BME280;61978;52.742;16.962;2022-09-13T13:12:57;99896.17;;;21.15;100.00
73679;BME280;61978;52.742;16.962;2022-09-13T13:14:45;99880.83;;;21.34;100.00
73679;BME280;61978;52.742;16.962;2022-09-13T13:17:38;99899.16;;;21.26;100.00
73679;BME280;61978;52.742;16.962;2022-09-13T13:49:49;99921.58;;;20.82;100.00
73679;BME280;61978;52.742;16.962;2022-09-13T14:00:11;99869.96;;;21.16;100.00
73679;BME280;61978;52.742;16.962;2022-09-13T14:05:19;99823.32;;;21.59;100.00
73679;BME280;61978;52.742;16.962;2022-09-13T14:11:26;99818.33;;;21.71;100.00
73679;BME280;61978;52.742;16.962;2022-09-13T14:13:57;99825.72;;;21.73;100.00
73679;BME280;61978;52.742;16.962;2022-09-13T14:19:38;99884.55;;;21.53;100.00
73679;BME280;61978;52.742;16.962;2022-09-13T14:22:21;99887.09;;;21.37;100.00
73679;BME280;61978;52.742;16.962;2022-09-13T14:24:54;99893.66;;;21.33;100.00
73679;BME280;61978;52.742;16.962;2022-09-13T14:27:24;99876.17;;;21.37;100.00
73679;BME280;61978;52.742;16.962;2022-09-13T14:30:00;99882.22;;;21.24;100.00
73679;BME280;61978;52.742;16.962;2022-09-13T14:32:30;99873.48;;;21.22;100.00
73679;BME280;61978;52.742;16.962;2022-09-13T14:35:03;99839.78;;;21.49;100.00
73679;BME280;61978;52.742;16.962;2022-09-13T14:37:33;99824.13;;;21.62;100.00
73679;BME280;61978;52.742;16.962;2022-09-13T14:40:20;99829.34;;;21.56;100.00
73679;BME280;61978;52.742;16.962;2022-09-13T14:42:49;99814.86;;;21.60;100.00
73679;BME280;61978;52.742;16.962;2022-09-13T14:45:33;99825.22;;;21.64;100.00
73679;BME280;61978;52.742;16.962;2022-09-13T14:48:06;99840.55;;;21.57;100.00
73679;BME280;61978;52.742;16.962;2022-09-13T14:50:36;99847.42;;;21.47;100.00
73679;BME280;61978;52.742;16.962;2022-09-13T14:53:14;99861.97;;;21.32;100.00
73679;BME280;61978;52.742;16.962;2022-09-13T14:55:42;99846.65;;;21.44;100.00
73679;BME280;61978;52.742;16.962;2022-09-13T14:58:16;99848.24;;;21.52;100.00
73679;BME280;61978;52.742;16.962;2022-09-13T15:01:04;99836.17;;;21.56;100.00
73679;BME280;61978;52.742;16.962;2022-09-13T15:03:31;99847.70;;;21.48;100.00
73679;BME280;61978;52.742;16.962;2022-09-13T15:06:00;99848.02;;;21.44;100.00
73679;BME280;61978;52.742;16.962;2022-09-13T15:08:46;99776.40;;;21.93;100.00
73679;BME280;61978;52.742;16.962;2022-09-13T15:11:26;99856.16;;;21.51;100.00
73679;BME280;61978;52.742;16.962;2022-09-13T15:13:43;99833.68;;;21.67;100.00
73679;BME280;61978;52.742;16.962;2022-09-13T15:16:24;99845.16;;;21.67;100.00
73679;BME280;61978;52.742;16.962;2022-09-13T15:21:39;99854.75;;;21.59;100.00
73679;BME280;61978;52.742;16.962;2022-09-13T15:24:13;99857.83;;;21.45;100.00
73679;BME280;61978;52.742;16.962;2022-09-13T15:26:36;99852.92;;;21.42;100.00
73679;BME280;61978;52.742;16.962;2022-09-13T15:29:03;99829.45;;;21.41;100.00
73679;BME280;61978;52.742;16.962;2022-09-13T15:31:32;99804.56;;;21.42;100.00
73679;BME280;61978;52.742;16.962;2022-09-13T15:39:27;99734.48;;;21.23;100.00
73679;BME280;61978;52.742;16.962;2022-09-13T15:41:56;99736.70;;;21.05;100.00
73679;BME280;61978;52.742;16.962;2022-09-13T15:44:24;99738.38;;;21.01;100.00
73679;BME280;61978;52.742;16.962;2022-09-13T15:46:58;99731.83;;;20.97;100.00
73679;BME280;61978;52.742;16.962;2022-09-13T15:49:26;99730.78;;;20.88;100.00
73679;BME280;61978;52.742;16.962;2022-09-13T15:52:00;99728.60;;;20.85;100.00
73679;BME280;61978;52.742;16.962;2022-09-13T15:54:26;99719.05;;;20.90;100.00
73679;BME280;61978;52.742;16.962;2022-09-13T15:56:53;99688.15;;;20.97;100.00